Time,TemperatureF,DewpointF,PressureIn,WindDirection,WindDirectionDegrees,WindSpeedMPH,WindSpeedGustMPH,Humidity,HourlyPrecipIn,Conditions,Clouds,dailyrainin,SoftwareType,DateUTC
2013-07-22 08:20:00,63.3,59.0,30.14,ENE,67,2.0,2.0,86,0.00,,,0.00,Wunderground v.1.15,2013-07-22 12:20:00,
2013-07-22 08:25:00,63.8,58.9,30.14,NE,55,2.0,2.0,84,0.00,,,0.00,Wunderground v.1.15,2013-07-22 12:25:00,
2013-07-22 08:35:00,63.8,57.5,30.15,ENE,69,3.0,5.0,80,0.00,,,0.00,Wunderground v.1.15,2013-07-22 12:35:00,
2013-07-22 08:40:00,63.7,57.4,30.15,NE,55,3.0,3.0,80,0.00,,,0.00,Wunderground v.1.15,2013-07-22 12:40:00,
2013-07-22 08:45:00,63.6,57.3,30.14,ENE,66,3.0,3.0,80,0.00,,,0.00,Wunderground v.1.15,2013-07-22 12:45:00,
2013-07-22 08:50:00,63.7,57.4,30.14,East,96,3.0,3.0,80,0.00,,,0.00,Wunderground v.1.15,2013-07-22 12:50:00,
2013-07-22 08:55:00,63.8,57.5,30.14,ENE,74,2.0,3.0,80,0.00,,,0.00,Wunderground v.1.15,2013-07-22 12:55:00,
2013-07-22 09:00:00,63.9,58.0,30.14,ESE,121,2.0,2.0,81,0.00,,,0.00,Wunderground v.1.15,2013-07-22 13:00:00,
2013-07-22 09:05:00,64.3,58.3,30.14,East,87,2.0,2.0,81,0.00,,,0.00,Wunderground v.1.15,2013-07-22 13:05:00,
2013-07-22 09:10:00,64.5,58.5,30.14,SE,124,2.0,2.0,81,0.00,,,0.00,Wunderground v.1.15,2013-07-22 13:10:00,
2013-07-22 09:15:00,64.5,58.2,30.14,ESE,105,1.0,2.0,80,0.00,,,0.00,Wunderground v.1.15,2013-07-22 13:15:00,
2013-07-22 09:20:00,64.6,58.6,30.15,ESE,103,1.0,2.0,81,0.00,,,0.00,Wunderground v.1.15,2013-07-22 13:20:00,
2013-07-22 09:25:00,64.3,58.3,30.15,East,87,1.0,2.0,81,0.00,,,0.00,Wunderground v.1.15,2013-07-22 13:25:00,
2013-07-22 09:30:00,64.2,58.9,30.15,East,86,1.0,2.0,83,0.00,,,0.00,Wunderground v.1.15,2013-07-22 13:30:00,
2013-07-22 09:35:00,64.1,58.8,30.15,East,82,2.0,3.0,83,0.00,,,0.00,Wunderground v.1.15,2013-07-22 13:35:00,
2013-07-22 09:45:00,64.3,59.4,30.15,ESE,107,1.0,2.0,84,0.00,,,0.00,Wunderground v.1.15,2013-07-22 13:45:00,
2013-07-22 09:50:00,64.7,59.8,30.15,ESE,102,1.0,1.0,84,0.00,,,0.00,Wunderground v.1.15,2013-07-22 13:50:00,
2013-07-22 09:55:00,65.1,59.5,30.15,ESE,113,1.0,1.0,82,0.00,,,0.00,Wunderground v.1.15,2013-07-22 13:55:00,
2013-07-22 10:00:00,65.3,59.7,30.15,East,84,1.0,1.0,82,0.00,,,0.00,Wunderground v.1.15,2013-07-22 14:00:00,
2013-07-22 10:05:00,65.4,59.8,30.15,NE,47,1.0,1.0,82,0.00,,,0.00,Wunderground v.1.15,2013-07-22 14:05:00,
2013-07-22 10:15:00,65.7,60.1,30.15,East,96,2.0,3.0,82,0.00,,,0.00,Wunderground v.1.15,2013-07-22 14:15:00,
2013-07-22 10:20:00,65.7,60.1,30.15,ESE,102,2.0,2.0,82,0.00,,,0.00,Wunderground v.1.15,2013-07-22 14:20:00,
2013-07-22 10:25:00,65.9,60.2,30.15,ENE,67,2.0,2.0,82,0.00,,,0.00,Wunderground v.1.15,2013-07-22 14:25:00,
2013-07-22 10:30:00,66.3,60.3,30.15,ENE,61,2.0,2.0,81,0.00,,,0.00,Wunderground v.1.15,2013-07-22 14:30:00,
2013-07-22 10:35:00,66.7,60.7,30.15,ENE,73,1.0,2.0,81,0.00,,,0.00,Wunderground v.1.15,2013-07-22 14:35:00,
2013-07-22 10:40:00,66.9,60.9,30.15,East,98,1.0,1.0,81,0.00,,,0.00,Wunderground v.1.15,2013-07-22 14:40:00,
2013-07-22 10:50:00,67.0,61.0,30.15,ENE,74,1.0,2.0,81,0.00,,,0.00,Wunderground v.1.15,2013-07-22 14:50:00,
2013-07-22 10:55:00,67.2,61.5,30.15,ENE,76,1.0,2.0,82,0.00,,,0.00,Wunderground v.1.15,2013-07-22 14:55:00,
2013-07-22 11:00:00,67.6,61.9,30.15,SE,126,1.0,1.0,82,0.00,,,0.00,Wunderground v.1.15,2013-07-22 15:00:00,
2013-07-22 11:10:00,68.2,62.1,30.15,SE,136,1.0,4.0,81,0.00,,,0.00,Wunderground v.1.15,2013-07-22 15:10:00,
2013-07-22 11:20:00,67.3,61.6,30.15,East,92,3.0,3.0,82,0.00,,,0.00,Wunderground v.1.15,2013-07-22 15:20:00,
2013-07-22 11:25:00,67.4,62.1,30.14,East,81,2.0,3.0,83,0.00,,,0.00,Wunderground v.1.15,2013-07-22 15:25:00,
2013-07-22 11:30:00,67.5,62.5,30.14,East,99,2.0,2.0,84,0.00,,,0.00,Wunderground v.1.15,2013-07-22 15:30:00,
2013-07-22 11:35:00,67.8,62.8,30.14,South,181,1.0,2.0,84,0.00,,,0.00,Wunderground v.1.15,2013-07-22 15:35:00,
2013-07-22 11:40:00,68.4,63.4,30.14,SE,129,1.0,2.0,84,0.00,,,0.00,Wunderground v.1.15,2013-07-22 15:40:00,
2013-07-22 11:45:00,68.8,63.1,30.14,SW,229,1.0,2.0,82,0.00,,,0.00,Wunderground v.1.15,2013-07-22 15:45:00,
2013-07-22 11:50:00,68.6,62.9,30.14,West,268,1.0,1.0,82,0.00,,,0.00,Wunderground v.1.15,2013-07-22 15:50:00,
2013-07-22 11:55:00,68.5,62.8,30.14,WSW,244,1.0,1.0,82,0.00,,,0.00,Wunderground v.1.15,2013-07-22 15:55:00,
2013-07-22 12:00:00,68.3,63.3,30.14,West,264,1.0,1.0,84,0.00,,,0.00,Wunderground v.1.15,2013-07-22 16:00:00,
2013-07-22 12:05:00,67.8,62.8,30.14,WSW,258,2.0,2.0,84,0.00,,,0.00,Wunderground v.1.15,2013-07-22 16:05:00,
2013-07-22 12:10:00,67.9,63.2,30.14,SE,132,2.0,2.0,85,0.00,,,0.00,Wunderground v.1.15,2013-07-22 16:10:00,
2013-07-22 12:15:00,68.5,63.5,30.14,WSW,242,1.0,2.0,84,0.00,,,0.00,Wunderground v.1.15,2013-07-22 16:15:00,
2013-07-22 12:20:00,68.8,63.8,30.14,ESE,108,1.0,1.0,84,0.00,,,0.00,Wunderground v.1.15,2013-07-22 16:20:00,
2013-07-22 12:30:00,68.6,63.2,30.14,North,355,2.0,2.0,83,0.00,,,0.00,Wunderground v.1.15,2013-07-22 16:30:00,
2013-07-22 12:35:00,68.6,63.6,30.14,SSE,156,1.0,2.0,84,0.00,,,0.00,Wunderground v.1.15,2013-07-22 16:35:00,
2013-07-22 12:40:00,68.4,63.7,30.14,SSE,155,1.0,1.0,85,0.00,,,0.00,Wunderground v.1.15,2013-07-22 16:40:00,
2013-07-22 12:45:00,68.3,64.3,30.14,SE,146,1.0,1.0,87,0.00,,,0.00,Wunderground v.1.15,2013-07-22 16:45:00,
2013-07-22 12:50:00,68.0,63.7,30.14,SE,146,0.0,0.0,86,0.00,,,0.00,Wunderground v.1.15,2013-07-22 16:50:00,
2013-07-22 12:55:00,67.7,63.4,30.14,SE,136,0.0,0.0,86,0.00,,,0.00,Wunderground v.1.15,2013-07-22 16:55:00,
2013-07-22 13:00:00,67.5,63.8,30.14,SE,138,1.0,1.0,88,0.00,,,0.00,Wunderground v.1.15,2013-07-22 17:00:00,
2013-07-22 13:10:00,67.4,63.7,30.13,ESE,112,0.0,0.0,88,0.00,,,0.00,Wunderground v.1.15,2013-07-22 17:10:00,
2013-07-22 13:15:00,67.4,63.7,30.13,ESE,113,0.0,1.0,88,0.00,,,0.00,Wunderground v.1.15,2013-07-22 17:15:00,
2013-07-22 13:25:00,67.7,63.7,30.12,ESE,111,1.0,1.0,87,0.00,,,0.00,Wunderground v.1.15,2013-07-22 17:25:00,
2013-07-22 13:30:00,67.6,63.6,30.12,East,94,1.0,3.0,87,0.00,,,0.01,Wunderground v.1.15,2013-07-22 17:30:00,
2013-07-22 13:35:00,67.3,63.6,30.12,East,94,2.0,3.0,88,0.00,,,0.01,Wunderground v.1.15,2013-07-22 17:35:00,
2013-07-22 13:40:00,67.4,64.0,30.12,NE,41,1.0,2.0,89,0.00,,,0.01,Wunderground v.1.15,2013-07-22 17:40:00,
2013-07-22 13:45:00,67.5,64.1,30.12,ENE,67,1.0,3.0,89,0.00,,,0.01,Wunderground v.1.15,2013-07-22 17:45:00,
2013-07-22 13:50:00,67.5,64.5,30.12,NE,42,2.0,3.0,90,0.00,,,0.01,Wunderground v.1.15,2013-07-22 17:50:00,
2013-07-22 14:00:00,67.1,64.4,30.11,NE,36,3.0,3.0,91,0.00,,,0.01,Wunderground v.1.15,2013-07-22 18:00:00,
2013-07-22 14:20:00,67.0,64.3,30.11,NE,55,1.0,2.0,91,0.00,,,0.01,Wunderground v.1.15,2013-07-22 18:20:00,
2013-07-22 14:25:00,67.0,64.3,30.11,ENE,76,2.0,2.0,91,0.00,,,0.01,Wunderground v.1.15,2013-07-22 18:25:00,
2013-07-22 14:35:00,67.0,64.3,30.11,NE,49,2.0,3.0,91,0.00,,,0.01,Wunderground v.1.15,2013-07-22 18:35:00,
2013-07-22 14:45:00,67.2,64.5,30.11,ENE,72,1.0,2.0,91,0.00,,,0.01,Wunderground v.1.15,2013-07-22 18:45:00,
2013-07-22 14:55:00,67.3,64.6,30.11,ENE,74,1.0,1.0,91,0.00,,,0.01,Wunderground v.1.15,2013-07-22 18:55:00,
2013-07-22 15:00:00,67.3,64.9,30.11,East,86,1.0,2.0,92,0.00,,,0.01,Wunderground v.1.15,2013-07-22 19:00:00,
2013-07-22 15:10:00,67.3,64.9,30.11,East,87,1.0,1.0,92,0.00,,,0.01,Wunderground v.1.15,2013-07-22 19:10:00,
2013-07-22 15:20:00,67.4,65.0,30.10,East,79,2.0,2.0,92,0.00,,,0.01,Wunderground v.1.15,2013-07-22 19:20:00,
2013-07-22 15:30:00,67.1,64.7,30.10,NE,51,2.0,2.0,92,0.00,,,0.01,Wunderground v.1.15,2013-07-22 19:30:00,
2013-07-22 15:35:00,67.1,65.0,30.10,NE,56,1.0,2.0,93,0.00,,,0.01,Wunderground v.1.15,2013-07-22 19:35:00,
2013-07-22 15:40:00,67.1,64.7,30.10,ESE,105,1.0,3.0,92,0.00,,,0.01,Wunderground v.1.15,2013-07-22 19:40:00,
2013-07-22 15:45:00,67.0,64.3,30.10,ESE,105,2.0,3.0,91,0.00,,,0.01,Wunderground v.1.15,2013-07-22 19:45:00,
2013-07-22 15:50:00,67.2,64.5,30.10,SE,134,2.0,2.0,91,0.00,,,0.01,Wunderground v.1.15,2013-07-22 19:50:00,
2013-07-22 15:55:00,67.5,64.5,30.10,ENE,70,1.0,2.0,90,0.00,,,0.01,Wunderground v.1.15,2013-07-22 19:55:00,
2013-07-22 16:00:00,68.0,65.0,30.10,ENE,68,1.0,2.0,90,0.00,,,0.01,Wunderground v.1.15,2013-07-22 20:00:00,
2013-07-22 16:05:00,68.1,65.4,30.10,ENE,76,1.0,3.0,91,0.00,,,0.01,Wunderground v.1.15,2013-07-22 20:05:00,
2013-07-22 16:10:00,67.9,65.2,30.10,ENE,78,2.0,3.0,91,0.00,,,0.01,Wunderground v.1.15,2013-07-22 20:10:00,
2013-07-22 16:15:00,67.9,65.5,30.09,ENE,61,1.0,3.0,92,0.00,,,0.01,Wunderground v.1.15,2013-07-22 20:15:00,
2013-07-22 16:20:00,67.9,65.2,30.09,ENE,61,1.0,1.0,91,0.00,,,0.01,Wunderground v.1.15,2013-07-22 20:20:00,
2013-07-22 16:25:00,68.1,65.1,30.09,SE,146,0.0,1.0,90,0.00,,,0.01,Wunderground v.1.15,2013-07-22 20:25:00,
2013-07-22 16:35:00,68.7,65.0,30.09,South,178,0.0,3.0,88,0.00,,,0.01,Wunderground v.1.15,2013-07-22 20:35:00,
2013-07-22 16:40:00,68.8,65.1,30.09,SE,128,1.0,2.0,88,0.00,,,0.01,Wunderground v.1.15,2013-07-22 20:40:00,
2013-07-22 16:45:00,68.6,64.6,30.09,SSE,156,1.0,2.0,87,0.00,,,0.01,Wunderground v.1.15,2013-07-22 20:45:00,
2013-07-22 16:50:00,68.5,64.8,30.08,SSE,155,1.0,1.0,88,0.00,,,0.01,Wunderground v.1.15,2013-07-22 20:50:00,
2013-07-22 17:00:00,68.7,65.0,30.08,South,169,0.0,0.0,88,0.00,,,0.01,Wunderground v.1.15,2013-07-22 21:00:00,
2013-07-22 17:05:00,69.0,65.0,30.08,SSE,165,0.0,0.0,87,0.00,,,0.01,Wunderground v.1.15,2013-07-22 21:05:00,
2013-07-22 17:10:00,69.3,65.3,30.08,SSE,163,0.0,0.0,87,0.00,,,0.01,Wunderground v.1.15,2013-07-22 21:10:00,
2013-07-22 17:15:00,69.7,65.7,30.08,South,172,0.0,0.0,87,0.00,,,0.01,Wunderground v.1.15,2013-07-22 21:15:00,
2013-07-22 17:20:00,69.8,65.4,30.08,SW,225,0.0,3.0,86,0.00,,,0.01,Wunderground v.1.15,2013-07-22 21:20:00,
2013-07-22 17:25:00,70.0,65.6,30.08,SW,229,0.0,3.0,86,0.00,,,0.01,Wunderground v.1.15,2013-07-22 21:25:00,
2013-07-22 17:30:00,70.1,65.7,30.08,NW,306,1.0,1.0,86,0.00,,,0.01,Wunderground v.1.15,2013-07-22 21:30:00,
2013-07-22 17:40:00,70.8,65.4,30.08,North,350,1.0,1.0,83,0.00,,,0.01,Wunderground v.1.15,2013-07-22 21:40:00,
2013-07-22 17:45:00,70.9,65.5,30.08,NNE,15,1.0,2.0,83,0.00,,,0.01,Wunderground v.1.15,2013-07-22 21:45:00,
2013-07-22 17:50:00,70.7,65.6,30.07,NNE,16,1.0,1.0,84,0.00,,,0.01,Wunderground v.1.15,2013-07-22 21:50:00,
2013-07-22 17:55:00,70.9,65.1,30.07,NE,36,1.0,1.0,82,0.00,,,0.01,Wunderground v.1.15,2013-07-22 21:55:00,
2013-07-22 18:00:00,70.8,64.7,30.07,WSW,258,2.0,4.0,81,0.00,,,0.01,Wunderground v.1.15,2013-07-22 22:00:00,
2013-07-22 18:05:00,70.8,65.0,30.07,WSW,255,1.0,4.0,82,0.00,,,0.01,Wunderground v.1.15,2013-07-22 22:05:00,
2013-07-22 18:10:00,70.8,65.0,30.07,South,191,0.0,0.0,82,0.00,,,0.01,Wunderground v.1.15,2013-07-22 22:10:00,
2013-07-22 18:15:00,70.7,65.6,30.07,NNW,347,1.0,2.0,84,0.00,,,0.01,Wunderground v.1.15,2013-07-22 22:15:00,
2013-07-22 18:20:00,70.4,65.0,30.07,SSE,158,1.0,1.0,83,0.00,,,0.01,Wunderground v.1.15,2013-07-22 22:20:00,
2013-07-22 18:25:00,70.3,65.6,30.07,SW,227,1.0,1.0,85,0.00,,,0.01,Wunderground v.1.15,2013-07-22 22:25:00,
2013-07-22 18:35:00,70.4,65.3,30.06,SW,227,0.0,1.0,84,0.00,,,0.01,Wunderground v.1.15,2013-07-22 22:35:00,
2013-07-22 18:40:00,70.4,65.7,30.06,SW,232,0.0,1.0,85,0.00,,,0.01,Wunderground v.1.15,2013-07-22 22:40:00,
2013-07-22 18:45:00,70.2,65.8,30.06,NNE,17,0.0,2.0,86,0.00,,,0.01,Wunderground v.1.15,2013-07-22 22:45:00,
2013-07-22 18:50:00,70.0,65.3,30.06,ESE,105,1.0,1.0,85,0.00,,,0.01,Wunderground v.1.15,2013-07-22 22:50:00,
2013-07-22 18:55:00,70.0,65.3,30.06,SE,134,1.0,1.0,85,0.00,,,0.01,Wunderground v.1.15,2013-07-22 22:55:00,
2013-07-22 19:00:00,69.8,65.1,30.06,SE,134,0.0,0.0,85,0.00,,,0.01,Wunderground v.1.15,2013-07-22 23:00:00,
2013-07-22 19:05:00,69.8,65.4,30.06,SE,134,0.0,0.0,86,0.00,,,0.01,Wunderground v.1.15,2013-07-22 23:05:00,
2013-07-22 19:10:00,69.7,65.3,30.06,SE,134,0.0,0.0,86,0.00,,,0.01,Wunderground v.1.15,2013-07-22 23:10:00,
2013-07-22 19:15:00,69.7,65.3,30.06,SE,133,0.0,2.0,86,0.00,,,0.01,Wunderground v.1.15,2013-07-22 23:15:00,
2013-07-22 19:20:00,69.7,65.3,30.06,SE,128,0.0,0.0,86,0.00,,,0.01,Wunderground v.1.15,2013-07-22 23:20:00,
2013-07-22 19:25:00,69.6,65.2,30.06,SE,128,0.0,0.0,86,0.00,,,0.01,Wunderground v.1.15,2013-07-22 23:25:00,
2013-07-22 19:30:00,69.5,65.1,30.06,SE,128,0.0,0.0,86,0.00,,,0.01,Wunderground v.1.15,2013-07-22 23:30:00,
2013-07-22 19:35:00,69.4,65.4,30.06,SE,128,0.0,0.0,87,0.00,,,0.01,Wunderground v.1.15,2013-07-22 23:35:00,
2013-07-22 19:45:00,68.8,64.8,30.06,South,170,2.0,2.0,87,0.00,,,0.01,Wunderground v.1.15,2013-07-22 23:45:00,
2013-07-22 19:55:00,68.4,64.7,30.06,SE,128,2.0,2.0,88,0.00,,,0.01,Wunderground v.1.15,2013-07-22 23:55:00,
2013-07-22 20:00:00,68.1,64.7,30.05,SSE,165,2.0,4.0,89,0.00,,,0.01,Wunderground v.1.15,2013-07-23 00:00:00,
2013-07-22 20:05:00,68.0,64.6,30.05,ESE,120,2.0,5.0,89,0.00,,,0.01,Wunderground v.1.15,2013-07-23 00:05:00,
2013-07-22 20:10:00,67.8,64.4,30.05,SE,143,3.0,4.0,89,0.00,,,0.01,Wunderground v.1.15,2013-07-23 00:10:00,
2013-07-22 20:15:00,67.6,64.2,30.05,South,170,4.0,4.0,89,0.00,,,0.01,Wunderground v.1.15,2013-07-23 00:15:00,
2013-07-22 20:20:00,67.5,64.1,30.05,SSW,201,4.0,4.0,89,0.00,,,0.01,Wunderground v.1.15,2013-07-23 00:20:00,
2013-07-22 20:25:00,67.4,64.0,30.05,SE,131,3.0,4.0,89,0.00,,,0.01,Wunderground v.1.15,2013-07-23 00:25:00,
2013-07-22 20:30:00,67.2,63.8,30.05,South,172,3.0,3.0,89,0.00,,,0.01,Wunderground v.1.15,2013-07-23 00:30:00,
2013-07-22 20:40:00,66.8,63.5,30.05,SSE,159,3.0,4.0,89,0.00,,,0.01,Wunderground v.1.15,2013-07-23 00:40:00,
2013-07-22 20:50:00,66.5,63.2,30.05,South,175,3.0,3.0,89,0.00,,,0.01,Wunderground v.1.15,2013-07-23 00:50:00,
2013-07-22 21:00:00,66.3,63.3,30.05,SE,144,4.0,4.0,90,0.00,,,0.01,Wunderground v.1.15,2013-07-23 01:00:00,
2013-07-22 21:10:00,66.1,62.8,30.06,SE,144,4.0,7.0,89,0.00,,,0.01,Wunderground v.1.15,2013-07-23 01:10:00,
2013-07-22 21:15:00,66.0,62.7,30.06,SW,217,3.0,7.0,89,0.00,,,0.01,Wunderground v.1.15,2013-07-23 01:15:00,
2013-07-22 21:20:00,65.9,62.6,30.05,SSE,168,4.0,4.0,89,0.00,,,0.01,Wunderground v.1.15,2013-07-23 01:20:00,
2013-07-22 21:25:00,65.9,62.6,30.06,SSE,150,3.0,4.0,89,0.00,,,0.01,Wunderground v.1.15,2013-07-23 01:25:00,
2013-07-22 21:30:00,65.8,62.5,30.06,SW,226,2.0,2.0,89,0.00,,,0.01,Wunderground v.1.15,2013-07-23 01:30:00,
2013-07-22 21:35:00,65.8,62.5,30.06,NNW,344,1.0,2.0,89,0.00,,,0.01,Wunderground v.1.15,2013-07-23 01:35:00,
2013-07-22 21:40:00,65.7,62.7,30.06,NW,306,1.0,2.0,90,0.00,,,0.01,Wunderground v.1.15,2013-07-23 01:40:00,
2013-07-22 21:45:00,65.6,62.6,30.06,NW,310,1.0,2.0,90,0.00,,,0.01,Wunderground v.1.15,2013-07-23 01:45:00,
2013-07-22 21:55:00,65.4,62.4,30.06,NW,311,1.0,1.0,90,0.00,,,0.01,Wunderground v.1.15,2013-07-23 01:55:00,
2013-07-22 22:00:00,65.4,62.4,30.06,NNW,333,1.0,2.0,90,0.00,,,0.01,Wunderground v.1.15,2013-07-23 02:00:00,
2013-07-22 22:05:00,65.2,62.5,30.06,NNW,333,0.0,2.0,91,0.00,,,0.01,Wunderground v.1.15,2013-07-23 02:05:00,
2013-07-22 22:15:00,64.9,62.2,30.06,NNW,333,0.0,1.0,91,0.00,,,0.01,Wunderground v.1.15,2013-07-23 02:15:00,
2013-07-22 22:20:00,64.7,62.3,30.06,NNW,333,1.0,1.0,92,0.00,,,0.01,Wunderground v.1.15,2013-07-23 02:20:00,
2013-07-22 22:25:00,64.6,62.2,30.06,NNW,333,0.0,1.0,92,0.00,,,0.01,Wunderground v.1.15,2013-07-23 02:25:00,
2013-07-22 22:30:00,64.4,62.3,30.06,NNW,333,0.0,0.0,93,0.00,,,0.01,Wunderground v.1.15,2013-07-23 02:30:00,
2013-07-22 22:35:00,64.3,62.2,30.06,NNW,333,1.0,1.0,93,0.00,,,0.01,Wunderground v.1.15,2013-07-23 02:35:00,
2013-07-22 22:40:00,64.2,61.8,30.05,NNW,333,0.0,0.0,92,0.00,,,0.01,Wunderground v.1.15,2013-07-23 02:40:00,
2013-07-22 22:45:00,64.1,61.7,30.05,NNW,333,0.0,0.0,92,0.00,,,0.01,Wunderground v.1.15,2013-07-23 02:45:00,
2013-07-22 22:55:00,64.0,61.9,30.05,NNW,333,0.0,0.0,93,0.00,,,0.01,Wunderground v.1.15,2013-07-23 02:55:00,
2013-07-22 23:00:00,63.9,61.8,30.05,NNW,333,0.0,0.0,93,0.00,,,0.01,Wunderground v.1.15,2013-07-23 03:00:00,
2013-07-22 23:10:00,63.6,61.5,30.05,NNW,333,0.0,0.0,93,0.00,,,0.01,Wunderground v.1.15,2013-07-23 03:10:00,
2013-07-22 23:20:00,63.4,61.6,30.04,NNW,333,0.0,0.0,94,0.00,,,0.01,Wunderground v.1.15,2013-07-23 03:20:00,
2013-07-22 23:25:00,63.2,61.1,30.04,NNW,333,0.0,0.0,93,0.00,,,0.01,Wunderground v.1.15,2013-07-23 03:25:00,
2013-07-22 23:35:00,62.7,60.6,30.04,NNW,333,0.0,0.0,93,0.00,,,0.01,Wunderground v.1.15,2013-07-23 03:35:00,
2013-07-22 23:40:00,62.5,60.4,30.04,NNW,333,0.0,0.0,93,0.00,,,0.01,Wunderground v.1.15,2013-07-23 03:40:00,
2013-07-22 23:45:00,62.4,60.3,30.04,NNW,333,0.0,0.0,93,0.00,,,0.01,Wunderground v.1.15,2013-07-23 03:45:00,
2013-07-22 23:50:00,62.5,60.4,30.03,NNW,333,0.0,0.0,93,0.00,,,0.01,Wunderground v.1.15,2013-07-23 03:50:00,
2013-07-22 23:55:00,62.5,60.4,30.03,NNW,333,0.0,0.0,93,0.00,,,0.01,Wunderground v.1.15,2013-07-23 03:55:00,